createdAt,value
2023-04-03T00:00:05.091Z,4.5
2023-04-03T00:05:05.078Z,4.5
2023-04-03T00:10:05.107Z,4.6
2023-04-03T00:15:05.082Z,4.9
2023-04-03T00:20:05.093Z,4.8
2023-04-03T00:25:05.109Z,5.4
2023-04-03T00:30:05.156Z,5.2
2023-04-03T00:35:05.118Z,5.2
2023-04-03T00:40:05.117Z,6
2023-04-03T00:45:05.087Z,5.4
2023-04-03T00:50:05.102Z,5.7
2023-04-03T00:55:05.094Z,5.1
2023-04-03T01:00:05.097Z,5.6
2023-04-03T01:05:05.091Z,5.6
2023-04-03T01:10:05.110Z,5.3
2023-04-03T01:15:05.093Z,5.6
2023-04-03T01:20:05.111Z,5.5
2023-04-03T01:25:05.099Z,5.6
2023-04-03T01:30:05.090Z,5.4
2023-04-03T01:35:05.095Z,5.4
2023-04-03T01:40:05.111Z,5.1
2023-04-03T01:45:05.104Z,5.1
2023-04-03T01:50:05.100Z,5.4
2023-04-03T01:55:05.120Z,5.8
2023-04-03T02:00:05.101Z,5.8
2023-04-03T02:05:05.088Z,5.8
2023-04-03T02:10:05.113Z,5.9
2023-04-03T02:15:05.088Z,6.4
2023-04-03T02:20:05.094Z,5.8
2023-04-03T02:25:05.117Z,6.4
2023-04-03T02:30:05.093Z,7.6
2023-04-03T02:35:05.083Z,7.6
2023-04-03T02:40:05.202Z,6.6
2023-04-03T02:45:05.085Z,7
2023-04-03T02:50:05.086Z,7.2
2023-04-03T02:55:05.101Z,7.3
2023-04-03T03:00:05.171Z,7.4
2023-04-03T03:05:05.118Z,7.4
2023-04-03T03:10:05.102Z,6.9
2023-04-03T03:15:05.104Z,7.2
2023-04-03T03:20:05.094Z,7
2023-04-03T03:25:05.101Z,6.4
2023-04-03T03:30:05.092Z,6.2
2023-04-03T03:35:05.096Z,6.2
2023-04-03T03:40:05.126Z,5.9
2023-04-03T03:45:05.094Z,6.1
2023-04-03T03:50:05.088Z,6.4
2023-04-03T03:55:05.102Z,6.4
2023-04-03T04:00:05.092Z,6.4
2023-04-03T04:05:05.102Z,6.4
2023-04-03T04:10:05.107Z,7.1
2023-04-03T04:15:05.135Z,6.6
2023-04-03T04:20:05.111Z,6.5
2023-04-03T04:25:05.104Z,6.2
2023-04-03T04:30:05.119Z,6
2023-04-03T04:35:05.120Z,6
2023-04-03T04:40:05.118Z,6.8
2023-04-03T04:45:05.102Z,6.8
2023-04-03T04:50:05.115Z,8.1
2023-04-03T04:55:05.111Z,6.9
2023-04-03T05:00:05.105Z,7.4
2023-04-03T05:05:05.393Z,7.4
2023-04-03T05:10:05.133Z,7.3
2023-04-03T05:15:05.101Z,6.7
2023-04-03T05:20:05.091Z,7.3
2023-04-03T05:25:05.132Z,6.3
2023-04-03T05:30:05.095Z,6.5
2023-04-03T05:35:05.087Z,6.5
2023-04-03T05:40:05.110Z,6.2
2023-04-03T05:45:05.102Z,7.6
2023-04-03T05:50:05.090Z,6
2023-04-03T05:55:05.113Z,5.2
2023-04-03T06:00:05.076Z,5.5
2023-04-03T06:05:05.236Z,5.5
2023-04-03T06:10:05.103Z,5.1
2023-04-03T06:15:05.087Z,4.8
2023-04-03T06:20:05.106Z,5
2023-04-03T06:25:05.113Z,4.8
2023-04-03T06:30:05.095Z,5
2023-04-03T06:35:05.084Z,5
2023-04-03T06:40:05.103Z,5.3
2023-04-03T06:45:05.101Z,5
2023-04-03T06:50:05.086Z,5
2023-04-03T06:55:05.092Z,4.4
2023-04-03T07:00:05.096Z,4.6
2023-04-03T07:05:05.091Z,4.6
2023-04-03T07:10:05.106Z,4.5
2023-04-03T07:15:05.093Z,4.9
2023-04-03T07:20:05.104Z,4.3
2023-04-03T07:25:05.104Z,4.4
2023-04-03T07:30:05.091Z,4.7
2023-04-03T07:35:05.083Z,4.7
2023-04-03T07:40:05.108Z,4.1
2023-04-03T07:45:05.096Z,4.1
2023-04-03T07:50:05.098Z,3.9
2023-04-03T07:55:05.113Z,3.9
2023-04-03T08:00:05.090Z,3.8
2023-04-03T08:05:05.156Z,3.8
2023-04-03T08:10:05.110Z,3.9
2023-04-03T08:15:05.081Z,3.9
2023-04-03T08:20:05.099Z,3.9
2023-04-03T08:25:05.101Z,4.7
2023-04-03T08:30:05.102Z,3.3
2023-04-03T08:35:05.089Z,3.3
2023-04-03T08:40:05.098Z,3.7
2023-04-03T08:45:05.078Z,3.5
2023-04-03T08:50:05.110Z,3.7
2023-04-03T08:55:05.174Z,3.5
2023-04-03T09:00:05.132Z,3.7
2023-04-03T09:05:05.121Z,3.7
2023-04-03T09:10:05.098Z,3
2023-04-03T09:15:05.088Z,2.9
2023-04-03T09:20:05.104Z,2.4
2023-04-03T09:25:05.111Z,2.5
2023-04-03T09:30:05.088Z,2.6
2023-04-03T09:35:17.181Z,2.6
2023-04-03T09:40:05.107Z,2.6
2023-04-03T09:45:05.081Z,2.3
2023-04-03T09:50:05.096Z,3
2023-04-03T09:55:05.100Z,2.7
2023-04-03T10:00:05.094Z,2.7
2023-04-03T10:10:05.106Z,2.7
2023-04-03T10:15:05.097Z,2.8
2023-04-03T10:20:05.098Z,2.8
2023-04-03T10:25:05.112Z,2.3
2023-04-03T10:30:05.101Z,2.5
2023-04-03T10:35:05.597Z,2.5
2023-04-03T10:40:05.128Z,2.2
2023-04-03T10:45:05.094Z,1.8
2023-04-03T10:50:05.098Z,1.7
2023-04-03T10:55:05.102Z,2
2023-04-03T11:00:05.093Z,2.7
2023-04-03T11:05:05.091Z,2.7
2023-04-03T11:10:05.133Z,1.6
2023-04-03T11:15:05.096Z,2.3
2023-04-03T11:20:05.099Z,1.7
2023-04-03T11:25:05.110Z,2
2023-04-03T11:30:05.099Z,2
2023-04-03T11:35:05.098Z,2
2023-04-03T11:40:05.131Z,2.3
2023-04-03T11:45:05.088Z,1.7
2023-04-03T11:50:05.090Z,1.9
2023-04-03T11:55:05.102Z,1.7
2023-04-03T12:00:05.091Z,1.9
2023-04-03T12:05:05.086Z,1.9
2023-04-03T12:10:05.116Z,2
2023-04-03T12:15:05.083Z,2.2
2023-04-03T12:20:05.084Z,1.8
2023-04-03T12:25:05.096Z,1.9
2023-04-03T12:30:05.101Z,2.2
2023-04-03T12:35:05.086Z,2.2
2023-04-03T12:40:05.118Z,1.9
2023-04-03T12:45:05.090Z,2
2023-04-03T12:50:05.112Z,2.4
2023-04-03T12:55:05.133Z,2
2023-04-03T13:00:05.104Z,1.9
2023-04-03T13:05:05.080Z,1.9
2023-04-03T13:10:05.122Z,1.8
2023-04-03T13:15:05.126Z,2.1
2023-04-03T13:20:05.094Z,2.3
2023-04-03T13:25:05.126Z,2.1
2023-04-03T13:30:05.093Z,2.6
2023-04-03T13:35:11.952Z,2.6
2023-04-03T13:40:05.110Z,2.3
2023-04-03T13:45:05.080Z,2.3
2023-04-03T13:50:05.124Z,1.7
2023-04-03T13:55:07.817Z,1.9
2023-04-03T14:00:05.098Z,2.2
2023-04-03T14:05:05.086Z,2.2
2023-04-03T14:10:05.138Z,2
2023-04-03T14:15:05.090Z,2.1
2023-04-03T14:20:05.206Z,2.1
2023-04-03T14:25:05.099Z,2.2
2023-04-03T14:30:05.195Z,1.9
2023-04-03T14:35:05.085Z,1.9
2023-04-03T14:40:05.134Z,1.9
2023-04-03T14:45:05.084Z,2.1
2023-04-03T14:50:05.163Z,2.1
2023-04-03T14:55:05.103Z,2
2023-04-03T15:00:05.146Z,1.9
2023-04-03T15:05:05.120Z,1.9
2023-04-03T15:10:05.106Z,1.8
2023-04-03T15:15:10.094Z,1.8
2023-04-03T15:20:10.099Z,1.4
2023-04-03T15:25:10.110Z,2
2023-04-03T15:30:10.095Z,1.5
2023-04-03T15:35:10.105Z,1.8
2023-04-03T15:40:10.146Z,1.8
2023-04-03T15:45:10.116Z,2
2023-04-03T15:50:10.090Z,1.6
2023-04-03T15:55:10.104Z,1.6
2023-04-03T16:00:10.110Z,1.4
2023-04-03T16:05:10.103Z,1.5
2023-04-03T16:10:10.109Z,1.5
2023-04-03T16:15:10.080Z,1.5
2023-04-03T16:20:10.177Z,1.5
2023-04-03T16:25:10.120Z,1.9
2023-04-03T16:30:10.097Z,1.8
2023-04-03T16:35:10.085Z,1.8
2023-04-03T16:40:10.118Z,1.8
2023-04-03T16:45:10.113Z,1.7
2023-04-03T16:50:10.207Z,2.2
2023-04-03T16:55:15.101Z,2
2023-04-03T17:00:15.088Z,2.1
2023-04-03T17:05:15.078Z,2
2023-04-03T17:10:15.117Z,2
2023-04-03T17:15:15.104Z,1.6
2023-04-03T17:20:15.084Z,2
2023-04-03T17:25:15.095Z,1.9
2023-04-03T17:30:15.078Z,1.7
2023-04-03T17:35:15.085Z,2
2023-04-03T17:40:15.097Z,2
2023-04-03T17:45:15.091Z,2.1
2023-04-03T17:50:15.088Z,1.8
2023-04-03T17:55:15.096Z,1.9
2023-04-03T18:00:15.099Z,1.9
2023-04-03T18:05:15.088Z,1.9
2023-04-03T18:10:15.116Z,1.9
2023-04-03T18:15:15.075Z,2.2
2023-04-03T18:20:15.124Z,2
2023-04-03T18:25:15.092Z,1.8
2023-04-03T18:30:15.103Z,1.8
2023-04-03T18:35:15.095Z,1.6
2023-04-03T18:40:15.120Z,1.6
2023-04-03T18:45:15.081Z,1.7
2023-04-03T18:50:15.091Z,2
2023-04-03T18:55:15.104Z,2.3
2023-04-03T19:00:15.091Z,2.3
2023-04-03T19:05:15.092Z,2.3
2023-04-03T19:10:15.110Z,2.3
2023-04-03T19:15:15.083Z,2.2
2023-04-03T19:20:15.143Z,2.2
2023-04-03T19:25:15.100Z,2.2
2023-04-03T19:30:15.102Z,2.2
2023-04-03T19:35:15.088Z,2.4
2023-04-03T19:40:15.107Z,2.4
2023-04-03T19:45:15.079Z,2.6
2023-04-03T19:50:15.100Z,2.3
2023-04-03T19:55:15.110Z,2.8
2023-04-03T20:00:15.096Z,2.4
2023-04-03T20:05:15.125Z,2.6
2023-04-03T20:10:15.116Z,2.6
2023-04-03T20:15:15.096Z,2.3
2023-04-03T20:20:15.107Z,2.9
2023-04-03T20:25:17.396Z,2.6
2023-04-03T20:30:15.090Z,3
2023-04-03T20:35:15.091Z,2.8
2023-04-03T20:40:15.119Z,2.8
2023-04-03T20:45:15.098Z,3.2
2023-04-03T20:50:15.097Z,2.8
2023-04-03T20:55:15.098Z,3.1
2023-04-03T21:00:15.140Z,3.4
2023-04-03T21:05:15.081Z,3.3
2023-04-03T21:10:15.105Z,3.3
2023-04-03T21:15:15.094Z,3.1
2023-04-03T21:20:15.095Z,2.6
2023-04-03T21:25:15.098Z,3
2023-04-03T21:30:15.094Z,3.5
2023-04-03T21:35:15.092Z,3.5
2023-04-03T21:40:15.127Z,3.5
2023-04-03T21:45:15.085Z,3.5
2023-04-03T21:50:15.091Z,3.8
2023-04-03T21:55:15.115Z,4.1
2023-04-03T22:00:15.156Z,4.2
2023-04-03T22:05:15.136Z,4.5
2023-04-03T22:10:15.107Z,4.5
2023-04-03T22:15:15.092Z,4.3
2023-04-03T22:20:15.091Z,4.3
2023-04-03T22:25:15.091Z,4.3
2023-04-03T22:30:15.094Z,3.7
2023-04-03T22:35:15.091Z,3.7
2023-04-03T22:40:15.110Z,3.7
2023-04-03T22:45:15.102Z,3.5
2023-04-03T22:50:15.135Z,3
2023-04-03T22:55:19.260Z,2.7
2023-04-03T23:00:15.107Z,2.9
2023-04-03T23:05:15.113Z,2.9
2023-04-03T23:10:15.167Z,2.9
2023-04-03T23:15:15.091Z,2.8
2023-04-03T23:20:15.106Z,2.7
2023-04-03T23:25:15.109Z,3.5
2023-04-03T23:30:15.086Z,2.8
2023-04-03T23:35:15.093Z,3.3
2023-04-03T23:40:15.120Z,3.3
2023-04-03T23:45:15.095Z,3.3
2023-04-03T23:50:15.097Z,3.3
2023-04-03T23:55:15.274Z,3.4
